Terminal Aerodrome Forecast
Issued by NWS

Home | Current Version | Previous Version | Text Only | Print | Product List | Glossary On
Versions: 1 2 3 4 5 6 7 8 9 10 11 12 13 14 15 16 17 18 19 20 21 22
000
FTUS41 KBGM 022323
TAFELM
TAF
KELM 022323Z 0300/0324 00000KT P6SM SCT200
     FM030500 00000KT 4SM BR SCT002
      TEMPO 0305/0309 1SM BR OVC002
     FM030900 00000KT 1/2SM FG OVC002
     FM031330 00000KT 2SM BR OVC002
     FM031400 31005KT P6SM BKN045=

USA.gov is the U.S. government's official web portal to all federal, state and local government web resources and services.